createdAt,value
2023-02-26T00:00:16.953Z,1.75
2023-02-26T00:02:47.933Z,1.88
2023-02-26T00:05:19.776Z,1.48
2023-02-26T00:07:48.818Z,1.50
2023-02-26T00:10:17.719Z,1.85
2023-02-26T00:12:50.934Z,1.90
2023-02-26T00:15:24.286Z,1.52
2023-02-26T00:18:00.759Z,1.67
2023-02-26T00:20:32.110Z,1.85
2023-02-26T00:23:02.004Z,2.10
2023-02-26T00:25:30.980Z,1.50
2023-02-26T00:28:00.552Z,1.58
2023-02-26T00:30:30.765Z,1.80
2023-02-26T00:33:00.542Z,1.80
2023-02-26T00:35:32.255Z,1.63
2023-02-26T00:38:04.824Z,1.55
2023-02-26T00:40:48.637Z,1.70
2023-02-26T00:43:20.726Z,1.90
2023-02-26T00:46:04.664Z,2.00
2023-02-26T00:48:56.536Z,1.77
2023-02-26T00:51:33.071Z,1.73
2023-02-26T00:54:10.871Z,1.30
2023-02-26T00:56:39.862Z,1.67
2023-02-26T00:59:08.897Z,1.88
2023-02-26T01:01:43.934Z,2.40
2023-02-26T01:04:15.351Z,1.85
2023-02-26T01:06:49.006Z,2.08
2023-02-26T01:09:25.592Z,2.25
2023-02-26T01:11:56.636Z,2.10
2023-02-26T01:14:26.676Z,2.40
2023-02-26T01:17:03.969Z,2.30
2023-02-26T01:19:42.785Z,2.50
2023-02-26T01:22:20.996Z,2.42
2023-02-26T01:24:58.094Z,1.80
2023-02-26T01:27:27.557Z,2.10
2023-02-26T01:29:56.913Z,1.80
2023-02-26T01:32:36.489Z,1.85
2023-02-26T01:35:19.243Z,1.83
2023-02-26T01:37:58.494Z,2.20
2023-02-26T01:41:12.640Z,2.00
2023-02-26T01:43:52.548Z,1.80
2023-02-26T01:46:29.860Z,1.95
2023-02-26T01:49:01.077Z,2.17
2023-02-26T01:51:49.439Z,2.03
2023-02-26T01:54:22.614Z,2.10
2023-02-26T01:56:58.729Z,2.22
2023-02-26T01:59:31.798Z,2.90
2023-02-26T02:02:04.364Z,3.05
2023-02-26T02:04:34.172Z,3.60
2023-02-26T02:07:04.899Z,2.80
2023-02-26T02:09:35.809Z,3.20
2023-02-26T02:12:19.502Z,3.13
2023-02-26T02:15:03.740Z,3.65
2023-02-26T02:17:48.324Z,2.85
2023-02-26T02:20:38.050Z,2.90
2023-02-26T02:23:18.372Z,2.60
2023-02-26T02:26:30.350Z,2.70
2023-02-26T02:29:23.020Z,2.95
2023-02-26T02:31:59.653Z,2.63
2023-02-26T02:34:37.760Z,3.28
2023-02-26T02:37:15.675Z,3.08
2023-02-26T02:39:50.937Z,3.33
2023-02-26T02:42:28.011Z,2.78
2023-02-26T02:45:07.996Z,4.10
2023-02-26T02:47:43.071Z,3.50
2023-02-26T02:50:22.000Z,4.28
2023-02-26T02:52:57.592Z,6.15
2023-02-26T02:55:31.434Z,5.95
2023-02-26T02:58:06.446Z,5.22
2023-02-26T03:00:41.059Z,4.47
2023-02-26T03:03:20.400Z,4.00
2023-02-26T03:05:51.461Z,3.65
2023-02-26T03:08:28.637Z,3.50
2023-02-26T03:10:57.959Z,3.10
2023-02-26T03:13:27.950Z,3.33
2023-02-26T03:16:19.599Z,2.58
2023-02-26T03:19:01.302Z,3.30
2023-02-26T03:21:45.331Z,3.42
2023-02-26T03:24:31.121Z,3.50
2023-02-26T03:27:06.399Z,3.03
2023-02-26T03:29:43.963Z,3.47
2023-02-26T03:32:17.318Z,3.42
2023-02-26T03:34:53.262Z,3.17
2023-02-26T03:37:27.831Z,3.50
2023-02-26T03:40:02.179Z,3.10
2023-02-26T03:42:37.467Z,3.45
2023-02-26T03:47:43.469Z,3.53
2023-02-26T03:50:21.384Z,3.28
2023-02-26T03:53:04.820Z,3.00
2023-02-26T03:56:02.940Z,3.22
2023-02-26T03:58:50.530Z,3.50
2023-02-26T04:01:54.461Z,3.80
2023-02-26T04:04:29.060Z,3.60
2023-02-26T04:06:59.638Z,3.47
2023-02-26T04:09:29.226Z,3.28
2023-02-26T04:11:59.779Z,3.70
2023-02-26T04:14:31.458Z,3.60
2023-02-26T04:17:00.695Z,4.03
2023-02-26T04:19:32.284Z,3.70
2023-02-26T04:22:02.619Z,3.92
2023-02-26T04:24:32.345Z,4.15
2023-02-26T04:27:03.909Z,3.83
2023-02-26T04:29:33.575Z,4.15
2023-02-26T04:32:04.252Z,4.00
2023-02-26T04:34:33.923Z,4.00
2023-02-26T04:37:04.719Z,4.03
2023-02-26T04:39:33.679Z,3.90
2023-02-26T04:42:04.396Z,4.03
2023-02-26T04:44:33.727Z,3.88
2023-02-26T04:47:03.634Z,3.63
2023-02-26T04:49:34.062Z,4.03
2023-02-26T04:52:04.585Z,3.90
2023-02-26T04:54:34.047Z,4.22
2023-02-26T04:57:03.211Z,3.97
2023-02-26T04:59:32.514Z,3.60
2023-02-26T05:02:04.480Z,3.50
2023-02-26T05:04:34.050Z,3.63
2023-02-26T05:07:04.929Z,3.97
2023-02-26T05:09:33.989Z,4.28
2023-02-26T05:12:02.965Z,3.70
2023-02-26T05:14:31.940Z,4.05
2023-02-26T05:17:01.274Z,4.57
2023-02-26T05:19:30.258Z,4.30
2023-02-26T05:21:59.286Z,4.50
2023-02-26T05:24:29.677Z,4.35
2023-02-26T05:26:58.684Z,4.80
2023-02-26T05:29:27.675Z,4.85
2023-02-26T05:31:57.393Z,4.75
2023-02-26T05:34:26.568Z,4.90
2023-02-26T05:36:55.573Z,4.90
2023-02-26T05:39:24.506Z,5.60
2023-02-26T05:41:55.516Z,4.88
2023-02-26T05:44:24.651Z,5.38
2023-02-26T05:46:53.723Z,4.57
2023-02-26T05:49:22.723Z,5.25
2023-02-26T05:51:51.790Z,5.63
2023-02-26T05:54:20.859Z,4.85
2023-02-26T05:56:49.863Z,5.32
2023-02-26T05:59:20.310Z,5.20
2023-02-26T06:01:52.006Z,5.38
2023-02-26T06:04:21.272Z,5.32
2023-02-26T06:06:50.142Z,5.50
2023-02-26T06:09:19.282Z,4.70
2023-02-26T06:11:48.327Z,5.47
2023-02-26T06:14:17.263Z,4.95
2023-02-26T06:16:47.691Z,4.45
2023-02-26T06:19:16.628Z,4.93
2023-02-26T06:21:47.947Z,5.00
2023-02-26T06:24:17.054Z,4.70
2023-02-26T06:26:45.962Z,4.65
2023-02-26T06:29:14.899Z,4.75
2023-02-26T06:31:43.947Z,4.57
2023-02-26T06:34:14.388Z,4.63
2023-02-26T06:36:43.568Z,5.13
2023-02-26T06:39:13.909Z,4.53
2023-02-26T06:41:42.999Z,4.75
2023-02-26T06:44:12.470Z,4.65
2023-02-26T06:46:41.557Z,5.65
2023-02-26T06:49:10.601Z,4.85
2023-02-26T06:51:40.991Z,5.65
2023-02-26T06:54:09.933Z,5.25
2023-02-26T06:56:38.997Z,5.40
2023-02-26T06:59:08.066Z,5.57
2023-02-26T07:01:36.998Z,5.45
2023-02-26T07:04:05.969Z,5.20
2023-02-26T07:06:34.971Z,4.70
2023-02-26T07:09:08.533Z,4.32
2023-02-26T07:11:37.496Z,4.70
2023-02-26T07:14:06.641Z,4.57
2023-02-26T07:16:35.606Z,4.60
2023-02-26T07:19:04.579Z,4.65
2023-02-26T07:21:33.624Z,4.75
2023-02-26T07:24:04.340Z,4.65
2023-02-26T07:26:33.295Z,4.55
2023-02-26T07:29:02.421Z,3.80
2023-02-26T07:31:31.708Z,3.55
2023-02-26T07:34:01.574Z,4.30
2023-02-26T07:36:30.877Z,3.90
2023-02-26T07:38:59.914Z,3.63
2023-02-26T07:41:30.276Z,3.13
2023-02-26T07:43:59.258Z,3.22
2023-02-26T07:46:28.567Z,3.72
2023-02-26T07:48:58.553Z,3.90
2023-02-26T07:51:28.249Z,3.47
2023-02-26T07:53:57.298Z,3.55
2023-02-26T07:56:26.461Z,3.88
2023-02-26T07:58:56.891Z,4.00
2023-02-26T08:01:26.043Z,3.50
2023-02-26T08:03:55.054Z,3.50
2023-02-26T08:06:24.412Z,3.25
2023-02-26T08:08:56.551Z,2.88
2023-02-26T08:11:25.558Z,2.95
2023-02-26T08:13:56.648Z,2.53
2023-02-26T08:16:26.044Z,2.95
2023-02-26T08:18:55.290Z,3.13
2023-02-26T08:21:24.598Z,2.90
2023-02-26T08:23:56.335Z,2.72
2023-02-26T08:26:28.264Z,2.47
2023-02-26T08:28:59.248Z,2.80
2023-02-26T08:31:28.482Z,2.80
2023-02-26T08:33:57.767Z,2.55
2023-02-26T08:36:27.592Z,2.95
2023-02-26T08:38:56.674Z,2.28
2023-02-26T08:41:27.665Z,2.65
2023-02-26T08:43:58.162Z,2.70
2023-02-26T08:46:27.976Z,2.78
2023-02-26T08:48:57.439Z,3.13
2023-02-26T08:51:27.012Z,2.80
2023-02-26T08:53:57.091Z,2.60
2023-02-26T08:56:28.841Z,2.92
2023-02-26T08:58:59.136Z,3.10
2023-02-26T09:01:28.653Z,2.60
2023-02-26T09:04:01.007Z,2.50
2023-02-26T09:06:30.452Z,2.20
2023-02-26T09:08:59.369Z,2.53
2023-02-26T09:11:30.685Z,2.40
2023-02-26T09:14:03.387Z,2.28
2023-02-26T09:16:35.609Z,2.83
2023-02-26T09:19:06.012Z,2.70
2023-02-26T09:21:35.818Z,2.70
2023-02-26T09:24:05.081Z,2.50
2023-02-26T09:26:34.212Z,2.78
2023-02-26T09:29:04.537Z,3.92
2023-02-26T09:31:34.155Z,2.33
2023-02-26T09:34:03.278Z,2.28
2023-02-26T09:36:32.316Z,2.30
2023-02-26T09:39:01.666Z,2.00
2023-02-26T09:41:35.467Z,2.20
2023-02-26T09:44:17.848Z,2.10
2023-02-26T09:46:56.875Z,2.22
2023-02-26T09:49:40.271Z,2.17
2023-02-26T09:52:21.232Z,1.88
2023-02-26T09:54:53.946Z,2.03
2023-02-26T09:57:32.112Z,1.83
2023-02-26T10:00:05.404Z,1.98
2023-02-26T10:02:51.987Z,1.70
2023-02-26T10:05:29.860Z,1.60
2023-02-26T10:08:03.678Z,1.88
2023-02-26T10:10:45.067Z,1.55
2023-02-26T10:13:26.840Z,2.25
2023-02-26T10:16:04.793Z,2.15
2023-02-26T10:18:38.939Z,1.83
2023-02-26T10:21:14.383Z,2.35
2023-02-26T10:23:48.894Z,1.77
2023-02-26T10:26:24.413Z,2.22
2023-02-26T10:29:03.980Z,2.10
2023-02-26T10:31:50.377Z,1.80
2023-02-26T10:34:28.749Z,1.55
2023-02-26T10:37:15.084Z,1.77
2023-02-26T10:39:51.279Z,1.98
2023-02-26T10:42:34.939Z,1.73
2023-02-26T10:45:24.252Z,1.70
2023-02-26T10:48:28.228Z,1.40
2023-02-26T10:50:59.830Z,1.50
2023-02-26T10:53:32.020Z,2.10
2023-02-26T10:56:09.254Z,1.80
2023-02-26T10:58:39.446Z,1.85
2023-02-26T11:01:15.694Z,1.63
2023-02-26T11:03:50.483Z,1.88
2023-02-26T11:06:26.958Z,2.05
2023-02-26T11:08:58.930Z,1.57
2023-02-26T11:11:47.999Z,1.70
2023-02-26T11:14:17.887Z,1.80
2023-02-26T11:16:51.187Z,1.50
2023-02-26T11:19:29.447Z,1.70
2023-02-26T11:22:01.054Z,1.73
2023-02-26T11:24:34.924Z,1.48
2023-02-26T11:27:08.033Z,1.70
2023-02-26T11:29:48.089Z,1.48
2023-02-26T11:32:21.106Z,2.05
2023-02-26T11:34:58.934Z,1.38
2023-02-26T11:37:31.465Z,1.98
2023-02-26T11:40:14.929Z,1.90
2023-02-26T11:42:50.648Z,2.05
2023-02-26T11:45:22.186Z,1.75
2023-02-26T11:48:02.402Z,2.05
2023-02-26T11:50:43.517Z,2.08
2023-02-26T11:53:21.483Z,2.00
2023-02-26T11:56:00.092Z,3.70
2023-02-26T11:58:32.050Z,2.92
2023-02-26T12:01:05.393Z,1.63
2023-02-26T12:03:41.323Z,2.03
2023-02-26T12:06:19.584Z,2.15
2023-02-26T12:08:49.989Z,1.90
2023-02-26T12:11:39.532Z,1.55
2023-02-26T12:14:53.745Z,1.90
2023-02-26T12:17:36.402Z,2.05
2023-02-26T12:20:23.938Z,1.80
2023-02-26T12:23:14.059Z,1.80
2023-02-26T12:26:03.944Z,1.90
2023-02-26T12:29:11.622Z,2.63
2023-02-26T12:32:29.087Z,1.70
2023-02-26T12:35:32.178Z,1.65
2023-02-26T12:38:20.468Z,1.60
2023-02-26T12:41:29.639Z,1.60
2023-02-26T12:44:02.121Z,1.63
2023-02-26T12:46:52.480Z,1.88
2023-02-26T12:50:08.172Z,1.60
2023-02-26T12:53:14.227Z,1.90
2023-02-26T12:55:58.744Z,1.60
2023-02-26T12:58:43.779Z,1.50
2023-02-26T13:01:59.596Z,1.60
2023-02-26T13:05:20.558Z,1.73
2023-02-26T13:08:09.387Z,1.40
2023-02-26T13:10:53.006Z,1.77
2023-02-26T13:13:44.843Z,1.38
2023-02-26T13:16:30.833Z,1.50
2023-02-26T13:19:13.445Z,1.40
2023-02-26T13:21:47.997Z,1.75
2023-02-26T13:24:25.554Z,1.45
2023-02-26T13:26:57.371Z,1.90
2023-02-26T13:29:30.717Z,1.33
2023-02-26T13:32:05.382Z,1.52
2023-02-26T13:34:42.312Z,1.80
2023-02-26T13:37:24.985Z,1.60
2023-02-26T13:40:18.045Z,1.83
2023-02-26T13:42:52.838Z,1.35
2023-02-26T13:45:56.104Z,2.67
2023-02-26T13:48:41.860Z,1.90
2023-02-26T13:51:29.327Z,1.70
2023-02-26T13:54:02.188Z,1.50
2023-02-26T13:56:56.288Z,1.48
2023-02-26T13:59:54.818Z,1.40
2023-02-26T14:06:24.303Z,1.80
2023-02-26T14:08:59.643Z,1.95
2023-02-26T14:11:45.751Z,1.70
2023-02-26T14:14:37.380Z,1.70
2023-02-26T14:17:48.675Z,1.60
2023-02-26T14:20:26.304Z,1.60
2023-02-26T14:23:26.980Z,2.15
2023-02-26T14:25:56.501Z,1.98
2023-02-26T14:28:56.983Z,1.80
2023-02-26T14:31:28.841Z,2.25
2023-02-26T14:34:15.786Z,1.55
2023-02-26T14:36:50.626Z,2.20
2023-02-26T14:39:31.555Z,2.50
2023-02-26T14:42:07.677Z,3.22
2023-02-26T14:44:42.397Z,2.35
2023-02-26T14:47:14.847Z,2.22
2023-02-26T14:49:46.909Z,4.43
2023-02-26T14:52:56.118Z,6.50
2023-02-26T14:55:45.829Z,3.75
2023-02-26T14:58:43.078Z,3.70
2023-02-26T15:01:31.963Z,2.88
2023-02-26T15:04:21.264Z,2.22
2023-02-26T15:07:23.714Z,2.33
2023-02-26T15:10:14.093Z,1.60
2023-02-26T15:13:01.814Z,1.70
2023-02-26T15:15:42.628Z,2.47
2023-02-26T15:18:31.126Z,2.38
2023-02-26T15:21:13.736Z,2.30
2023-02-26T15:23:46.078Z,2.00
2023-02-26T15:26:23.092Z,4.03
2023-02-26T15:28:53.346Z,3.22
2023-02-26T15:31:31.825Z,4.20
2023-02-26T15:34:01.820Z,3.47
2023-02-26T15:36:32.967Z,4.10
2023-02-26T15:39:04.081Z,3.08
2023-02-26T15:41:33.935Z,1.90
2023-02-26T15:44:10.663Z,2.40
2023-02-26T15:46:44.070Z,3.80
2023-02-26T15:49:20.456Z,2.10
2023-02-26T15:51:52.804Z,2.53
2023-02-26T15:54:27.748Z,2.70
2023-02-26T15:56:57.058Z,3.00
2023-02-26T15:59:30.557Z,1.95
2023-02-26T16:01:59.721Z,2.00
2023-02-26T16:04:30.989Z,2.47
2023-02-26T16:07:04.217Z,4.30
2023-02-26T16:09:39.549Z,2.50
2023-02-26T16:12:16.272Z,2.10
2023-02-26T16:14:50.112Z,2.38
2023-02-26T16:17:26.899Z,1.70
2023-02-26T16:20:00.160Z,2.38
2023-02-26T16:22:34.929Z,2.10
2023-02-26T16:25:10.530Z,2.20
2023-02-26T16:27:40.787Z,2.40
2023-02-26T16:30:20.160Z,2.75
2023-02-26T16:32:52.524Z,2.10
2023-02-26T16:35:29.298Z,1.92
2023-02-26T16:37:59.702Z,2.20
2023-02-26T16:40:34.933Z,2.47
2023-02-26T16:43:07.318Z,1.92
2023-02-26T16:45:50.897Z,2.30
2023-02-26T16:48:26.494Z,1.90
2023-02-26T16:51:02.138Z,2.45
2023-02-26T16:53:37.871Z,3.17
2023-02-26T16:56:07.295Z,3.03
2023-02-26T16:58:36.484Z,2.90
2023-02-26T17:01:13.810Z,3.20
2023-02-26T17:03:44.921Z,3.72
2023-02-26T17:06:19.072Z,2.63
2023-02-26T17:08:54.250Z,3.20
2023-02-26T17:11:28.266Z,6.22
2023-02-26T17:14:19.131Z,4.07
2023-02-26T17:16:53.236Z,2.55
2023-02-26T17:19:22.632Z,2.92
2023-02-26T17:21:58.663Z,4.38
2023-02-26T17:24:33.922Z,2.97
2023-02-26T17:27:08.077Z,13.32
2023-02-26T17:29:40.702Z,3.90
2023-02-26T17:32:20.487Z,2.97
2023-02-26T17:34:50.801Z,2.90
2023-02-26T17:37:21.530Z,2.78
2023-02-26T17:39:52.372Z,3.35
2023-02-26T17:42:23.267Z,4.00
2023-02-26T17:44:52.890Z,3.45
2023-02-26T17:47:25.761Z,4.00
2023-02-26T17:49:55.625Z,4.80
2023-02-26T17:52:26.551Z,3.63
2023-02-26T17:54:57.328Z,4.68
2023-02-26T17:57:28.605Z,3.20
2023-02-26T17:59:57.703Z,2.40
2023-02-26T18:02:28.226Z,2.42
2023-02-26T18:04:57.608Z,4.85
2023-02-26T18:07:26.803Z,2.85
2023-02-26T18:09:57.223Z,6.40
2023-02-26T18:12:27.155Z,7.07
2023-02-26T18:14:56.570Z,2.22
2023-02-26T18:17:31.272Z,2.03
2023-02-26T18:20:00.796Z,2.50
2023-02-26T18:22:30.578Z,2.95
2023-02-26T18:25:01.382Z,3.00
2023-02-26T18:27:35.439Z,3.95
2023-02-26T18:30:06.090Z,4.05
2023-02-26T18:32:37.476Z,4.38
2023-02-26T18:35:07.213Z,2.67
2023-02-26T18:37:36.221Z,2.75
2023-02-26T18:40:13.754Z,5.22
2023-02-26T18:42:43.144Z,7.25
2023-02-26T18:45:13.278Z,4.78
2023-02-26T18:47:44.768Z,3.35
2023-02-26T18:50:15.852Z,3.45
2023-02-26T18:52:45.715Z,2.85
2023-02-26T18:55:16.393Z,2.72
2023-02-26T18:57:45.335Z,2.60
2023-02-26T19:00:16.361Z,2.53
2023-02-26T19:02:47.133Z,23.25
2023-02-26T19:05:23.336Z,28.13
2023-02-26T19:07:52.994Z,8.05
2023-02-26T19:10:24.153Z,3.30
2023-02-26T19:12:53.287Z,3.60
2023-02-26T19:15:40.333Z,2.80
2023-02-26T19:18:09.992Z,3.22
2023-02-26T19:20:40.288Z,6.00
2023-02-26T19:23:13.590Z,2.70
2023-02-26T19:25:57.445Z,3.17
2023-02-26T19:28:28.707Z,2.70
2023-02-26T19:30:57.817Z,2.70
2023-02-26T19:33:26.823Z,2.95
2023-02-26T19:35:59.297Z,2.42
2023-02-26T19:38:34.450Z,3.63
2023-02-26T19:41:05.276Z,2.72
2023-02-26T19:43:36.187Z,3.22
2023-02-26T19:46:09.168Z,2.67
2023-02-26T19:48:39.415Z,2.90
2023-02-26T19:51:09.289Z,4.40
2023-02-26T19:53:44.497Z,3.00
2023-02-26T19:56:15.333Z,2.75
2023-02-26T19:58:44.489Z,3.08
2023-02-26T20:01:13.545Z,3.75
2023-02-26T20:03:43.401Z,3.03
2023-02-26T20:06:12.781Z,2.25
2023-02-26T20:08:42.665Z,2.67
2023-02-26T20:11:12.331Z,3.08
2023-02-26T20:13:43.180Z,2.88
2023-02-26T20:16:12.542Z,3.30
2023-02-26T20:18:41.778Z,3.67
2023-02-26T20:21:14.929Z,2.92
2023-02-26T20:23:44.238Z,2.58
2023-02-26T20:26:16.649Z,2.78
2023-02-26T20:28:47.374Z,3.40
2023-02-26T20:31:16.713Z,2.70
2023-02-26T20:33:46.016Z,3.03
2023-02-26T20:36:15.608Z,2.95
2023-02-26T20:38:46.304Z,2.97
2023-02-26T20:41:16.264Z,2.53
2023-02-26T20:43:46.993Z,2.83
2023-02-26T20:46:16.106Z,3.28
2023-02-26T20:48:45.333Z,3.10
2023-02-26T20:51:15.638Z,3.53
2023-02-26T20:53:45.850Z,3.20
2023-02-26T20:56:15.324Z,2.80
2023-02-26T20:58:44.350Z,3.20
2023-02-26T21:01:15.029Z,3.65
2023-02-26T21:03:44.087Z,2.65
2023-02-26T21:06:13.180Z,2.75
2023-02-26T21:08:43.803Z,3.10
2023-02-26T21:11:13.486Z,3.38
2023-02-26T21:13:44.409Z,3.05
2023-02-26T21:16:15.059Z,3.20
2023-02-26T21:18:44.180Z,2.72
2023-02-26T21:21:13.158Z,2.70
2023-02-26T21:23:42.349Z,2.90
2023-02-26T21:26:11.303Z,2.75
2023-02-26T21:28:40.521Z,2.78
2023-02-26T21:31:10.243Z,2.33
2023-02-26T21:33:40.749Z,3.30
2023-02-26T21:36:11.509Z,2.75
2023-02-26T21:38:40.834Z,3.10
2023-02-26T21:41:09.762Z,2.85
2023-02-26T21:43:39.214Z,3.17
2023-02-26T21:46:08.254Z,2.55
2023-02-26T21:48:37.265Z,2.90
2023-02-26T21:51:08.530Z,2.92
2023-02-26T21:53:37.544Z,3.55
2023-02-26T21:56:06.731Z,4.50
2023-02-26T21:58:36.261Z,4.07
2023-02-26T22:01:05.799Z,3.65
2023-02-26T22:03:38.491Z,3.10
2023-02-26T22:06:09.277Z,2.78
2023-02-26T22:08:38.203Z,2.97
2023-02-26T22:11:07.250Z,2.67
2023-02-26T22:13:36.325Z,3.50
2023-02-26T22:16:06.381Z,2.38
2023-02-26T22:18:35.497Z,2.00
2023-02-26T22:21:04.704Z,1.90
2023-02-26T22:23:37.085Z,2.28
2023-02-26T22:26:07.901Z,2.03
2023-02-26T22:28:36.987Z,1.95
2023-02-26T22:31:06.475Z,2.00
2023-02-26T22:33:35.541Z,1.70
2023-02-26T22:36:05.353Z,2.17
2023-02-26T22:38:35.674Z,2.30
2023-02-26T22:41:04.905Z,1.90
2023-02-26T22:43:34.110Z,2.70
2023-02-26T22:46:03.175Z,2.20
2023-02-26T22:48:32.170Z,2.08
2023-02-26T22:51:01.091Z,2.10
2023-02-26T22:53:31.327Z,2.15
2023-02-26T22:56:01.749Z,1.90
2023-02-26T22:58:30.734Z,1.90
2023-02-26T23:01:04.354Z,2.10
2023-02-26T23:03:34.146Z,2.15
2023-02-26T23:06:03.290Z,2.22
2023-02-26T23:08:32.229Z,1.92
2023-02-26T23:11:03.973Z,2.28
2023-02-26T23:13:35.576Z,2.05
2023-02-26T23:16:05.850Z,2.38
2023-02-26T23:18:36.664Z,2.28
2023-02-26T23:21:09.068Z,2.05
2023-02-26T23:23:38.124Z,2.33
2023-02-26T23:26:10.820Z,2.20
2023-02-26T23:28:39.923Z,2.15
2023-02-26T23:31:09.465Z,2.25
2023-02-26T23:33:38.576Z,2.42
2023-02-26T23:36:08.849Z,2.33
2023-02-26T23:38:38.089Z,2.28
2023-02-26T23:41:08.625Z,2.85
2023-02-26T23:43:40.246Z,2.95
2023-02-26T23:46:12.064Z,2.70
2023-02-26T23:48:41.199Z,2.88
2023-02-26T23:51:10.229Z,2.70
2023-02-26T23:53:39.224Z,3.17
2023-02-26T23:56:09.824Z,2.95
2023-02-26T23:58:38.736Z,2.70
